sensor_id;sensor_type;location;lat;lon;timestamp;pressure;altitude;pressure_sealevel;temperature;humidity
67740;BME280;54536;50.090;14.420;2023-07-13T00:01:54;99015.25;;;26.95;44.70
67740;BME280;54536;50.090;14.420;2023-07-13T00:04:23;99030.28;;;26.91;45.14
67740;BME280;54536;50.090;14.420;2023-07-13T00:06:51;99026.34;;;26.99;45.46
67740;BME280;54536;50.090;14.420;2023-07-13T00:09:21;99028.16;;;26.71;46.47
67740;BME280;54536;50.090;14.420;2023-07-13T00:11:55;99030.47;;;26.84;46.61
67740;BME280;54536;50.090;14.420;2023-07-13T00:14:23;99033.19;;;26.84;46.43
67740;BME280;54536;50.090;14.420;2023-07-13T00:16:49;99034.63;;;26.70;46.81
67740;BME280;54536;50.090;14.420;2023-07-13T00:19:16;99027.75;;;26.79;46.25
67740;BME280;54536;50.090;14.420;2023-07-13T00:21:42;99031.06;;;26.87;45.91
67740;BME280;54536;50.090;14.420;2023-07-13T00:24:13;99033.63;;;26.76;46.48
67740;BME280;54536;50.090;14.420;2023-07-13T00:26:40;99038.56;;;26.84;45.99
67740;BME280;54536;50.090;14.420;2023-07-13T00:29:07;99029.16;;;26.87;46.08
67740;BME280;54536;50.090;14.420;2023-07-13T00:31:35;99027.56;;;26.86;46.15
67740;BME280;54536;50.090;14.420;2023-07-13T00:34:02;99017.56;;;26.87;46.21
67740;BME280;54536;50.090;14.420;2023-07-13T00:36:30;99018.66;;;26.85;46.51
67740;BME280;54536;50.090;14.420;2023-07-13T00:38:57;99006.16;;;26.79;46.03
67740;BME280;54536;50.090;14.420;2023-07-13T00:41:23;99007.03;;;26.85;45.82
67740;BME280;54536;50.090;14.420;2023-07-13T00:43:50;98997.38;;;26.89;45.10
67740;BME280;54536;50.090;14.420;2023-07-13T00:46:21;98997.25;;;26.79;45.85
67740;BME280;54536;50.090;14.420;2023-07-13T00:48:50;99002.34;;;26.75;45.12
67740;BME280;54536;50.090;14.420;2023-07-13T00:51:21;98996.97;;;26.80;44.71
67740;BME280;54536;50.090;14.420;2023-07-13T00:53:51;98983.56;;;26.85;45.19
67740;BME280;54536;50.090;14.420;2023-07-13T00:56:19;98972.38;;;26.99;44.78
67740;BME280;54536;50.090;14.420;2023-07-13T00:58:46;98977.41;;;26.90;44.89
67740;BME280;54536;50.090;14.420;2023-07-13T01:01:12;98987.38;;;26.90;45.21
67740;BME280;54536;50.090;14.420;2023-07-13T01:03:39;98988.66;;;26.82;45.69
67740;BME280;54536;50.090;14.420;2023-07-13T01:06:07;98987.38;;;26.90;45.23
67740;BME280;54536;50.090;14.420;2023-07-13T01:08:34;98986.31;;;26.91;45.55
67740;BME280;54536;50.090;14.420;2023-07-13T01:11:00;98983.75;;;26.79;46.16
67740;BME280;54536;50.090;14.420;2023-07-13T01:13:27;98987.13;;;26.91;46.34
67740;BME280;54536;50.090;14.420;2023-07-13T01:15:55;98982.06;;;26.95;46.74
67740;BME280;54536;50.090;14.420;2023-07-13T01:18:25;98984.63;;;26.84;46.78
67740;BME280;54536;50.090;14.420;2023-07-13T01:20:55;98976.66;;;26.95;46.29
67740;BME280;54536;50.090;14.420;2023-07-13T01:23:23;98971.47;;;26.88;47.25
67740;BME280;54536;50.090;14.420;2023-07-13T01:25:52;98974.16;;;26.88;47.09
67740;BME280;54536;50.090;14.420;2023-07-13T01:28:19;98970.06;;;26.85;47.03
67740;BME280;54536;50.090;14.420;2023-07-13T01:30:46;98973.50;;;26.81;47.09
67740;BME280;54536;50.090;14.420;2023-07-13T01:33:15;98974.66;;;26.63;47.65
67740;BME280;54536;50.090;14.420;2023-07-13T01:35:43;98970.97;;;26.69;47.10
67740;BME280;54536;50.090;14.420;2023-07-13T01:38:11;98972.16;;;26.78;47.25
67740;BME280;54536;50.090;14.420;2023-07-13T01:40:38;98968.78;;;26.66;47.44
67740;BME280;54536;50.090;14.420;2023-07-13T01:43:05;98962.44;;;26.55;47.35
67740;BME280;54536;50.090;14.420;2023-07-13T01:45:31;98969.00;;;26.65;46.65
67740;BME280;54536;50.090;14.420;2023-07-13T01:47:58;98976.78;;;26.61;46.91
67740;BME280;54536;50.090;14.420;2023-07-13T01:50:25;98975.41;;;26.58;47.33
67740;BME280;54536;50.090;14.420;2023-07-13T01:52:52;98972.25;;;26.45;47.78
67740;BME280;54536;50.090;14.420;2023-07-13T01:55:19;98972.59;;;26.48;47.65
67740;BME280;54536;50.090;14.420;2023-07-13T01:57:46;98975.28;;;26.48;47.47
67740;BME280;54536;50.090;14.420;2023-07-13T02:00:13;98974.53;;;26.53;48.01
67740;BME280;54536;50.090;14.420;2023-07-13T02:02:40;98978.22;;;26.47;47.64
67740;BME280;54536;50.090;14.420;2023-07-13T02:05:06;98978.63;;;26.38;48.01
67740;BME280;54536;50.090;14.420;2023-07-13T02:07:33;98967.78;;;26.50;47.85
67740;BME280;54536;50.090;14.420;2023-07-13T02:10:02;98967.78;;;26.50;48.38
67740;BME280;54536;50.090;14.420;2023-07-13T02:12:28;98965.66;;;26.35;48.82
67740;BME280;54536;50.090;14.420;2023-07-13T02:14:54;98966.81;;;26.39;48.94
67740;BME280;54536;50.090;14.420;2023-07-13T02:17:21;98958.13;;;26.37;49.70
67740;BME280;54536;50.090;14.420;2023-07-13T02:19:47;98958.31;;;26.31;50.09
67740;BME280;54536;50.090;14.420;2023-07-13T02:22:14;98968.91;;;26.37;49.78
67740;BME280;54536;50.090;14.420;2023-07-13T02:24:40;98986.53;;;26.23;50.56
67740;BME280;54536;50.090;14.420;2023-07-13T02:27:06;98992.38;;;26.37;50.54
67740;BME280;54536;50.090;14.420;2023-07-13T02:29:32;98998.16;;;26.46;50.30
67740;BME280;54536;50.090;14.420;2023-07-13T02:31:59;98994.31;;;26.42;50.28
67740;BME280;54536;50.090;14.420;2023-07-13T02:34:25;98996.50;;;26.45;50.25
67740;BME280;54536;50.090;14.420;2023-07-13T02:36:52;98994.25;;;26.36;50.26
67740;BME280;54536;50.090;14.420;2023-07-13T02:39:18;98996.50;;;26.23;50.91
67740;BME280;54536;50.090;14.420;2023-07-13T02:41:44;98997.81;;;26.20;51.02
67740;BME280;54536;50.090;14.420;2023-07-13T02:44:13;99007.59;;;26.26;51.07
67740;BME280;54536;50.090;14.420;2023-07-13T02:46:39;99013.72;;;26.22;50.82
67740;BME280;54536;50.090;14.420;2023-07-13T02:49:06;99013.88;;;26.15;51.01
67740;BME280;54536;50.090;14.420;2023-07-13T02:51:32;99017.75;;;26.02;52.07
67740;BME280;54536;50.090;14.420;2023-07-13T02:54:01;99031.78;;;26.04;51.99
67740;BME280;54536;50.090;14.420;2023-07-13T02:56:30;99029.16;;;26.09;52.23
67740;BME280;54536;50.090;14.420;2023-07-13T02:58:57;99033.56;;;26.15;51.96
67740;BME280;54536;50.090;14.420;2023-07-13T03:01:24;99030.88;;;26.15;52.11
67740;BME280;54536;50.090;14.420;2023-07-13T03:03:51;99034.88;;;25.96;53.11
67740;BME280;54536;50.090;14.420;2023-07-13T03:06:18;99032.94;;;26.08;52.64
67740;BME280;54536;50.090;14.420;2023-07-13T03:08:45;99027.22;;;26.05;53.00
67740;BME280;54536;50.090;14.420;2023-07-13T03:11:15;99037.00;;;26.11;52.65
67740;BME280;54536;50.090;14.420;2023-07-13T03:13:42;99035.25;;;26.00;53.41
67740;BME280;54536;50.090;14.420;2023-07-13T03:16:11;99029.28;;;25.98;53.06
67740;BME280;54536;50.090;14.420;2023-07-13T03:18:38;99033.34;;;26.00;53.15
67740;BME280;54536;50.090;14.420;2023-07-13T03:21:06;99038.25;;;26.03;53.05
67740;BME280;54536;50.090;14.420;2023-07-13T03:23:32;99051.06;;;25.96;52.94
67740;BME280;54536;50.090;14.420;2023-07-13T03:26:06;99054.34;;;25.98;53.26
67740;BME280;54536;50.090;14.420;2023-07-13T03:28:32;99064.69;;;25.89;53.58
67740;BME280;54536;50.090;14.420;2023-07-13T03:31:04;99061.75;;;25.91;52.00
67740;BME280;54536;50.090;14.420;2023-07-13T03:33:31;99073.69;;;25.95;51.81
67740;BME280;54536;50.090;14.420;2023-07-13T03:35:57;99077.13;;;25.90;49.05
67740;BME280;54536;50.090;14.420;2023-07-13T03:38:24;99098.69;;;25.79;47.69
67740;BME280;54536;50.090;14.420;2023-07-13T03:40:50;99099.50;;;25.79;45.80
67740;BME280;54536;50.090;14.420;2023-07-13T03:43:17;99092.41;;;25.73;45.49
67740;BME280;54536;50.090;14.420;2023-07-13T03:45:43;99092.69;;;25.60;45.46
67740;BME280;54536;50.090;14.420;2023-07-13T03:48:10;99103.09;;;25.68;44.78
67740;BME280;54536;50.090;14.420;2023-07-13T03:50:36;99101.59;;;25.60;44.09
67740;BME280;54536;50.090;14.420;2023-07-13T03:53:02;99104.72;;;25.40;43.73
67740;BME280;54536;50.090;14.420;2023-07-13T03:55:29;99096.22;;;25.32;43.83
67740;BME280;54536;50.090;14.420;2023-07-13T03:58:22;99092.13;;;25.29;43.64
67740;BME280;54536;50.090;14.420;2023-07-13T04:00:46;99109.78;;;25.37;43.73
67740;BME280;54536;50.090;14.420;2023-07-13T04:03:12;99110.63;;;25.26;44.28
67740;BME280;54536;50.090;14.420;2023-07-13T04:05:38;99117.91;;;25.25;43.92
67740;BME280;54536;50.090;14.420;2023-07-13T04:08:06;99131.25;;;25.20;43.53
67740;BME280;54536;50.090;14.420;2023-07-13T04:10:34;99128.31;;;25.10;43.57
67740;BME280;54536;50.090;14.420;2023-07-13T04:13:00;99123.66;;;25.05;44.01
67740;BME280;54536;50.090;14.420;2023-07-13T04:15:29;99120.13;;;25.05;43.50
67740;BME280;54536;50.090;14.420;2023-07-13T04:17:56;99122.34;;;25.08;43.50
67740;BME280;54536;50.090;14.420;2023-07-13T04:20:22;99124.69;;;25.04;43.96
67740;BME280;54536;50.090;14.420;2023-07-13T04:22:49;99128.91;;;25.00;43.79
67740;BME280;54536;50.090;14.420;2023-07-13T04:25:16;99138.63;;;25.13;43.23
67740;BME280;54536;50.090;14.420;2023-07-13T04:27:42;99133.22;;;25.01;43.76
67740;BME280;54536;50.090;14.420;2023-07-13T04:30:09;99146.91;;;25.11;43.39
67740;BME280;54536;50.090;14.420;2023-07-13T04:32:35;99139.94;;;24.98;43.65
67740;BME280;54536;50.090;14.420;2023-07-13T04:35:01;99136.31;;;24.93;43.24
67740;BME280;54536;50.090;14.420;2023-07-13T04:37:28;99140.88;;;24.92;42.92
67740;BME280;54536;50.090;14.420;2023-07-13T04:39:55;99137.13;;;24.82;43.58
67740;BME280;54536;50.090;14.420;2023-07-13T04:42:22;99139.47;;;24.66;43.49
67740;BME280;54536;50.090;14.420;2023-07-13T04:44:50;99156.31;;;24.62;43.56
67740;BME280;54536;50.090;14.420;2023-07-13T04:47:18;99154.81;;;24.66;43.35
67740;BME280;54536;50.090;14.420;2023-07-13T04:49:45;99151.41;;;24.70;43.76
67740;BME280;54536;50.090;14.420;2023-07-13T04:52:12;99158.19;;;24.61;43.23
67740;BME280;54536;50.090;14.420;2023-07-13T04:54:38;99168.94;;;24.61;43.80
67740;BME280;54536;50.090;14.420;2023-07-13T04:57:05;99157.38;;;24.61;44.07
67740;BME280;54536;50.090;14.420;2023-07-13T04:59:33;99164.72;;;24.53;44.08
67740;BME280;54536;50.090;14.420;2023-07-13T05:01:59;99174.56;;;24.60;44.16
67740;BME280;54536;50.090;14.420;2023-07-13T05:04:27;99162.75;;;24.61;44.46
67740;BME280;54536;50.090;14.420;2023-07-13T05:06:53;99171.38;;;24.51;44.98
67740;BME280;54536;50.090;14.420;2023-07-13T05:09:20;99163.97;;;24.35;45.16
67740;BME280;54536;50.090;14.420;2023-07-13T05:11:47;99168.84;;;24.26;45.51
67740;BME280;54536;50.090;14.420;2023-07-13T05:14:13;99179.13;;;24.29;45.82
67740;BME280;54536;50.090;14.420;2023-07-13T05:16:41;99174.72;;;24.35;45.21
67740;BME280;54536;50.090;14.420;2023-07-13T05:19:08;99170.16;;;24.35;45.60
67740;BME280;54536;50.090;14.420;2023-07-13T05:21:34;99174.59;;;24.29;45.41
67740;BME280;54536;50.090;14.420;2023-07-13T05:24:01;99184.97;;;24.14;46.11
67740;BME280;54536;50.090;14.420;2023-07-13T05:26:27;99180.88;;;24.12;46.45
67740;BME280;54536;50.090;14.420;2023-07-13T05:28:53;99191.88;;;24.22;46.13
67740;BME280;54536;50.090;14.420;2023-07-13T05:31:19;99191.66;;;24.23;46.38
67740;BME280;54536;50.090;14.420;2023-07-13T05:33:45;99190.81;;;24.23;46.32
67740;BME280;54536;50.090;14.420;2023-07-13T05:36:12;99202.41;;;24.23;46.11
67740;BME280;54536;50.090;14.420;2023-07-13T05:38:39;99194.91;;;24.25;46.17
67740;BME280;54536;50.090;14.420;2023-07-13T05:41:06;99196.28;;;24.16;46.30
67740;BME280;54536;50.090;14.420;2023-07-13T05:43:33;99198.66;;;24.24;46.32
67740;BME280;54536;50.090;14.420;2023-07-13T05:45:59;99195.16;;;24.24;46.35
67740;BME280;54536;50.090;14.420;2023-07-13T05:48:26;99194.81;;;24.32;45.83
67740;BME280;54536;50.090;14.420;2023-07-13T05:50:53;99200.75;;;24.22;46.81
67740;BME280;54536;50.090;14.420;2023-07-13T05:53:19;99202.16;;;24.25;46.45
67740;BME280;54536;50.090;14.420;2023-07-13T05:55:46;99212.09;;;24.24;46.47
67740;BME280;54536;50.090;14.420;2023-07-13T05:58:17;99206.94;;;24.23;46.48
67740;BME280;54536;50.090;14.420;2023-07-13T06:00:43;99203.78;;;24.26;46.62
67740;BME280;54536;50.090;14.420;2023-07-13T06:03:10;99200.88;;;24.27;46.19
67740;BME280;54536;50.090;14.420;2023-07-13T06:05:38;99204.22;;;24.41;46.13
67740;BME280;54536;50.090;14.420;2023-07-13T06:08:06;99203.16;;;24.42;46.33
67740;BME280;54536;50.090;14.420;2023-07-13T06:10:33;99205.97;;;24.47;46.41
67740;BME280;54536;50.090;14.420;2023-07-13T06:13:00;99210.53;;;24.59;46.00
67740;BME280;54536;50.090;14.420;2023-07-13T06:15:26;99202.59;;;24.52;45.83
67740;BME280;54536;50.090;14.420;2023-07-13T06:17:52;99215.00;;;24.53;45.72
67740;BME280;54536;50.090;14.420;2023-07-13T06:20:21;99211.47;;;24.41;46.20
67740;BME280;54536;50.090;14.420;2023-07-13T06:22:47;99217.34;;;24.49;46.20
67740;BME280;54536;50.090;14.420;2023-07-13T06:25:13;99226.66;;;24.59;46.13
67740;BME280;54536;50.090;14.420;2023-07-13T06:27:40;99232.31;;;24.69;45.52
67740;BME280;54536;50.090;14.420;2023-07-13T06:30:06;99229.28;;;24.77;45.68
67740;BME280;54536;50.090;14.420;2023-07-13T06:32:33;99220.03;;;24.73;45.59
67740;BME280;54536;50.090;14.420;2023-07-13T06:34:59;99222.16;;;24.83;45.21
67740;BME280;54536;50.090;14.420;2023-07-13T06:37:25;99215.72;;;24.84;45.18
67740;BME280;54536;50.090;14.420;2023-07-13T06:39:51;99215.84;;;24.89;45.21
67740;BME280;54536;50.090;14.420;2023-07-13T06:42:18;99219.78;;;24.98;45.32
67740;BME280;54536;50.090;14.420;2023-07-13T06:44:44;99225.44;;;25.08;45.35
67740;BME280;54536;50.090;14.420;2023-07-13T06:47:10;99222.97;;;25.07;45.29
67740;BME280;54536;50.090;14.420;2023-07-13T06:49:36;99222.41;;;25.16;45.47
67740;BME280;54536;50.090;14.420;2023-07-13T06:52:03;99226.03;;;25.22;45.15
67740;BME280;54536;50.090;14.420;2023-07-13T06:54:30;99231.41;;;25.22;45.27
67740;BME280;54536;50.090;14.420;2023-07-13T06:56:56;99236.88;;;25.27;45.15
67740;BME280;54536;50.090;14.420;2023-07-13T06:59:22;99243.34;;;25.38;44.33
67740;BME280;54536;50.090;14.420;2023-07-13T07:01:48;99237.81;;;25.44;44.19
67740;BME280;54536;50.090;14.420;2023-07-13T07:04:15;99246.34;;;25.53;44.38
67740;BME280;54536;50.090;14.420;2023-07-13T07:06:41;99231.91;;;25.59;44.52
67740;BME280;54536;50.090;14.420;2023-07-13T07:09:07;99229.75;;;25.73;43.88
67740;BME280;54536;50.090;14.420;2023-07-13T07:11:37;99237.69;;;25.80;43.77
67740;BME280;54536;50.090;14.420;2023-07-13T07:14:03;99236.22;;;25.84;43.79
67740;BME280;54536;50.090;14.420;2023-07-13T07:16:30;99242.50;;;25.89;43.66
67740;BME280;54536;50.090;14.420;2023-07-13T07:18:57;99251.50;;;25.95;43.78
67740;BME280;54536;50.090;14.420;2023-07-13T07:21:24;99251.38;;;26.02;43.50
67740;BME280;54536;50.090;14.420;2023-07-13T07:23:52;99255.31;;;26.11;43.23
67740;BME280;54536;50.090;14.420;2023-07-13T07:26:18;99251.81;;;26.10;43.43
67740;BME280;54536;50.090;14.420;2023-07-13T07:28:45;99259.31;;;26.08;43.54
67740;BME280;54536;50.090;14.420;2023-07-13T07:31:11;99261.81;;;25.98;43.60
67740;BME280;54536;50.090;14.420;2023-07-13T07:33:37;99264.47;;;26.10;43.53
67740;BME280;54536;50.090;14.420;2023-07-13T07:36:04;99267.22;;;26.27;43.04
67740;BME280;54536;50.090;14.420;2023-07-13T07:38:30;99262.47;;;26.34;42.89
67740;BME280;54536;50.090;14.420;2023-07-13T07:40:56;99271.75;;;26.55;42.26
67740;BME280;54536;50.090;14.420;2023-07-13T07:43:22;99264.53;;;26.44;42.13
67740;BME280;54536;50.090;14.420;2023-07-13T07:45:49;99270.06;;;26.66;42.48
67740;BME280;54536;50.090;14.420;2023-07-13T07:48:15;99272.69;;;26.77;41.91
67740;BME280;54536;50.090;14.420;2023-07-13T07:50:41;99268.25;;;26.71;41.66
67740;BME280;54536;50.090;14.420;2023-07-13T07:53:07;99275.63;;;26.76;41.72
67740;BME280;54536;50.090;14.420;2023-07-13T07:55:36;99275.63;;;26.59;41.37
67740;BME280;54536;50.090;14.420;2023-07-13T07:58:03;99283.41;;;26.55;41.49
67740;BME280;54536;50.090;14.420;2023-07-13T08:00:29;99280.44;;;26.57;41.04
67740;BME280;54536;50.090;14.420;2023-07-13T08:02:58;99278.31;;;26.59;40.06
67740;BME280;54536;50.090;14.420;2023-07-13T08:05:25;99283.47;;;26.60;40.40
67740;BME280;54536;50.090;14.420;2023-07-13T08:07:51;99287.56;;;26.63;38.87
67740;BME280;54536;50.090;14.420;2023-07-13T08:10:18;99282.31;;;26.56;38.99
67740;BME280;54536;50.090;14.420;2023-07-13T08:12:44;99294.09;;;26.67;37.59
67740;BME280;54536;50.090;14.420;2023-07-13T08:15:13;99292.88;;;26.75;37.66
67740;BME280;54536;50.090;14.420;2023-07-13T08:17:39;99288.81;;;26.89;37.74
67740;BME280;54536;50.090;14.420;2023-07-13T08:20:07;99296.72;;;26.96;37.60
67740;BME280;54536;50.090;14.420;2023-07-13T08:22:35;99295.91;;;26.95;37.31
67740;BME280;54536;50.090;14.420;2023-07-13T08:25:01;99307.41;;;27.07;36.71
67740;BME280;54536;50.090;14.420;2023-07-13T08:27:29;99302.47;;;27.16;36.40
67740;BME280;54536;50.090;14.420;2023-07-13T08:29:55;99304.66;;;26.85;36.90
67740;BME280;54536;50.090;14.420;2023-07-13T08:32:22;99293.69;;;27.09;36.84
67740;BME280;54536;50.090;14.420;2023-07-13T08:34:50;99293.88;;;27.19;36.33
67740;BME280;54536;50.090;14.420;2023-07-13T08:37:16;99295.31;;;27.44;36.19
67740;BME280;54536;50.090;14.420;2023-07-13T08:39:43;99288.47;;;27.58;36.06
67740;BME280;54536;50.090;14.420;2023-07-13T08:45:02;99283.34;;;27.78;35.27
67740;BME280;54536;50.090;14.420;2023-07-13T08:47:35;99284.47;;;27.61;35.36
67740;BME280;54536;50.090;14.420;2023-07-13T08:50:04;99289.47;;;27.52;35.97
67740;BME280;54536;50.090;14.420;2023-07-13T08:52:39;99289.06;;;27.43;35.29
67740;BME280;54536;50.090;14.420;2023-07-13T08:55:21;99292.66;;;27.49;35.23
67740;BME280;54536;50.090;14.420;2023-07-13T08:58:00;99282.75;;;27.54;34.99
67740;BME280;54536;50.090;14.420;2023-07-13T09:00:59;99289.50;;;27.74;33.85
67740;BME280;54536;50.090;14.420;2023-07-13T09:03:30;99290.25;;;28.13;32.49
67740;BME280;54536;50.090;14.420;2023-07-13T09:05:59;99290.50;;;28.12;31.50
67740;BME280;54536;50.090;14.420;2023-07-13T09:09:10;99286.88;;;28.01;32.57
67740;BME280;54536;50.090;14.420;2023-07-13T09:14:25;99303.97;;;28.07;32.89
67740;BME280;54536;50.090;14.420;2023-07-13T09:16:56;99304.84;;;28.12;32.70
67740;BME280;54536;50.090;14.420;2023-07-13T09:19:30;99298.38;;;27.91;33.42
67740;BME280;54536;50.090;14.420;2023-07-13T09:22:03;99308.75;;;27.99;32.52
67740;BME280;54536;50.090;14.420;2023-07-13T09:24:52;99307.91;;;27.99;31.59
67740;BME280;54536;50.090;14.420;2023-07-13T09:27:31;99312.97;;;28.12;31.35
67740;BME280;54536;50.090;14.420;2023-07-13T09:32:54;99315.09;;;28.59;30.95
67740;BME280;54536;50.090;14.420;2023-07-13T09:35:27;99307.72;;;28.82;30.72
67740;BME280;54536;50.090;14.420;2023-07-13T09:38:20;99318.72;;;29.02;30.73
67740;BME280;54536;50.090;14.420;2023-07-13T09:43:35;99310.97;;;29.16;29.26
67740;BME280;54536;50.090;14.420;2023-07-13T09:46:01;99320.53;;;29.24;29.21
67740;BME280;54536;50.090;14.420;2023-07-13T09:48:34;99320.31;;;28.98;29.53
67740;BME280;54536;50.090;14.420;2023-07-13T09:51:13;99317.72;;;28.81;29.48
67740;BME280;54536;50.090;14.420;2023-07-13T09:53:43;99327.50;;;29.14;29.31
67740;BME280;54536;50.090;14.420;2023-07-13T09:56:29;99334.53;;;29.15;28.36
67740;BME280;54536;50.090;14.420;2023-07-13T09:58:56;99329.56;;;29.02;29.32
67740;BME280;54536;50.090;14.420;2023-07-13T10:01:37;99331.03;;;29.20;28.76
67740;BME280;54536;50.090;14.420;2023-07-13T10:04:17;99333.91;;;29.40;28.84
67740;BME280;54536;50.090;14.420;2023-07-13T10:06:47;99334.38;;;29.70;28.63
67740;BME280;54536;50.090;14.420;2023-07-13T10:09:17;99331.47;;;29.86;27.66
67740;BME280;54536;50.090;14.420;2023-07-13T10:11:45;99324.94;;;29.88;27.97
67740;BME280;54536;50.090;14.420;2023-07-13T10:14:17;99312.16;;;29.78;26.88
67740;BME280;54536;50.090;14.420;2023-07-13T10:16:46;99318.94;;;29.75;26.70
67740;BME280;54536;50.090;14.420;2023-07-13T10:19:26;99317.28;;;29.69;26.41
67740;BME280;54536;50.090;14.420;2023-07-13T10:22:04;99315.94;;;29.72;26.90
67740;BME280;54536;50.090;14.420;2023-07-13T10:24:38;99315.41;;;29.75;26.63
67740;BME280;54536;50.090;14.420;2023-07-13T10:27:17;99320.28;;;29.73;27.61
67740;BME280;54536;50.090;14.420;2023-07-13T10:30:20;99318.41;;;29.78;27.09
67740;BME280;54536;50.090;14.420;2023-07-13T10:32:50;99319.81;;;29.86;27.79
67740;BME280;54536;50.090;14.420;2023-07-13T10:35:19;99312.22;;;29.88;27.04
67740;BME280;54536;50.090;14.420;2023-07-13T10:38:01;99317.66;;;29.93;27.04
67740;BME280;54536;50.090;14.420;2023-07-13T10:40:41;99313.34;;;29.92;26.51
67740;BME280;54536;50.090;14.420;2023-07-13T10:43:18;99304.63;;;29.95;25.84
67740;BME280;54536;50.090;14.420;2023-07-13T10:45:48;99302.00;;;30.10;26.79
67740;BME280;54536;50.090;14.420;2023-07-13T10:48:17;99298.25;;;30.22;26.46
67740;BME280;54536;50.090;14.420;2023-07-13T10:50:48;99298.69;;;29.98;27.45
67740;BME280;54536;50.090;14.420;2023-07-13T10:53:20;99297.34;;;29.96;26.98
67740;BME280;54536;50.090;14.420;2023-07-13T10:58:33;99297.00;;;29.82;26.63
67740;BME280;54536;50.090;14.420;2023-07-13T11:01:08;99297.88;;;29.98;27.05
67740;BME280;54536;50.090;14.420;2023-07-13T11:06:39;99298.41;;;29.90;26.86
67740;BME280;54536;50.090;14.420;2023-07-13T11:12:08;99285.72;;;30.05;27.58
67740;BME280;54536;50.090;14.420;2023-07-13T11:15:09;99286.84;;;30.20;26.86
67740;BME280;54536;50.090;14.420;2023-07-13T11:17:48;99275.47;;;30.23;26.53
67740;BME280;54536;50.090;14.420;2023-07-13T11:22:50;99285.56;;;30.53;26.30
67740;BME280;54536;50.090;14.420;2023-07-13T11:27:51;99275.22;;;30.60;25.90
67740;BME280;54536;50.090;14.420;2023-07-13T11:38:31;99267.34;;;30.33;25.54
67740;BME280;54536;50.090;14.420;2023-07-13T11:41:23;99272.75;;;30.23;26.22
67740;BME280;54536;50.090;14.420;2023-07-13T11:43:55;99278.72;;;30.20;27.25
67740;BME280;54536;50.090;14.420;2023-07-13T11:46:24;99269.97;;;30.02;26.90
67740;BME280;54536;50.090;14.420;2023-07-13T11:48:52;99266.38;;;29.76;25.78
67740;BME280;54536;50.090;14.420;2023-07-13T11:51:22;99269.59;;;29.73;26.74
67740;BME280;54536;50.090;14.420;2023-07-13T11:53:52;99260.66;;;29.73;26.67
67740;BME280;54536;50.090;14.420;2023-07-13T11:56:19;99271.44;;;29.62;27.53
67740;BME280;54536;50.090;14.420;2023-07-13T11:58:50;99272.50;;;29.56;26.84
67740;BME280;54536;50.090;14.420;2023-07-13T12:01:24;99274.91;;;29.58;27.22
67740;BME280;54536;50.090;14.420;2023-07-13T12:03:53;99264.88;;;29.58;27.57
67740;BME280;54536;50.090;14.420;2023-07-13T12:06:30;99276.78;;;29.52;26.82
67740;BME280;54536;50.090;14.420;2023-07-13T12:09:01;99270.25;;;29.48;26.46
67740;BME280;54536;50.090;14.420;2023-07-13T12:11:30;99272.44;;;29.51;26.56
67740;BME280;54536;50.090;14.420;2023-07-13T12:13:56;99270.03;;;29.55;25.70
67740;BME280;54536;50.090;14.420;2023-07-13T12:16:29;99275.72;;;29.53;26.68
67740;BME280;54536;50.090;14.420;2023-07-13T12:18:57;99268.66;;;29.52;25.79
67740;BME280;54536;50.090;14.420;2023-07-13T12:21:36;99263.88;;;29.65;25.85
67740;BME280;54536;50.090;14.420;2023-07-13T12:24:04;99270.34;;;30.31;25.50
67740;BME280;54536;50.090;14.420;2023-07-13T12:26:31;99265.28;;;31.77;24.04
67740;BME280;54536;50.090;14.420;2023-07-13T12:29:01;99265.00;;;33.06;22.38
67740;BME280;54536;50.090;14.420;2023-07-13T12:31:37;99257.06;;;34.20;20.23
67740;BME280;54536;50.090;14.420;2023-07-13T12:36:36;99260.25;;;35.80;19.36
67740;BME280;54536;50.090;14.420;2023-07-13T12:41:53;99251.09;;;35.62;19.35
67740;BME280;54536;50.090;14.420;2023-07-13T12:44:30;99249.94;;;35.91;19.26
67740;BME280;54536;50.090;14.420;2023-07-13T12:47:04;99242.09;;;36.34;18.92
67740;BME280;54536;50.090;14.420;2023-07-13T12:49:33;99248.63;;;35.33;18.43
67740;BME280;54536;50.090;14.420;2023-07-13T12:52:09;99250.28;;;35.02;20.02
67740;BME280;54536;50.090;14.420;2023-07-13T12:54:40;99243.59;;;34.29;19.38
67740;BME280;54536;50.090;14.420;2023-07-13T12:57:16;99249.09;;;33.62;20.71
67740;BME280;54536;50.090;14.420;2023-07-13T12:59:43;99242.38;;;33.30;21.02
67740;BME280;54536;50.090;14.420;2023-07-13T13:04:49;99238.44;;;33.17;22.39
67740;BME280;54536;50.090;14.420;2023-07-13T13:07:15;99235.00;;;34.35;19.94
67740;BME280;54536;50.090;14.420;2023-07-13T13:09:42;99242.53;;;35.09;19.59
67740;BME280;54536;50.090;14.420;2023-07-13T13:12:08;99237.75;;;35.01;19.60
67740;BME280;54536;50.090;14.420;2023-07-13T13:14:34;99237.03;;;34.95;19.91
67740;BME280;54536;50.090;14.420;2023-07-13T13:17:19;99233.53;;;34.76;20.05
67740;BME280;54536;50.090;14.420;2023-07-13T13:19:47;99235.25;;;35.18;18.97
67740;BME280;54536;50.090;14.420;2023-07-13T13:22:13;99223.78;;;34.37;19.63
67740;BME280;54536;50.090;14.420;2023-07-13T13:24:40;99225.75;;;34.17;21.28
67740;BME280;54536;50.090;14.420;2023-07-13T13:29:39;99228.16;;;33.09;22.35
67740;BME280;54536;50.090;14.420;2023-07-13T13:32:12;99229.66;;;32.96;22.36
67740;BME280;54536;50.090;14.420;2023-07-13T13:34:38;99223.19;;;33.83;22.12
67740;BME280;54536;50.090;14.420;2023-07-13T13:37:18;99217.75;;;33.83;22.00
67740;BME280;54536;50.090;14.420;2023-07-13T13:39:45;99226.50;;;33.13;22.39
67740;BME280;54536;50.090;14.420;2023-07-13T13:42:13;99234.09;;;32.87;23.02
67740;BME280;54536;50.090;14.420;2023-07-13T13:44:40;99229.69;;;32.23;24.10